createdAt,value
2022-10-18T00:03:29.603Z,2.3
2022-10-18T00:09:28.204Z,2.3
2022-10-18T00:15:32.284Z,2.3
2022-10-18T00:21:28.879Z,2.3
2022-10-18T00:27:27.923Z,2.3
2022-10-18T00:33:28.228Z,2.4
2022-10-18T00:39:28.561Z,2.4
2022-10-18T00:45:27.930Z,2.4
2022-10-18T00:51:27.767Z,2.4
2022-10-18T00:57:29.494Z,2.3
2022-10-18T01:03:28.482Z,2.3
2022-10-18T01:09:27.922Z,2.3
2022-10-18T01:15:27.612Z,2.3
2022-10-18T01:21:27.540Z,2.3
2022-10-18T01:27:27.770Z,2.3
2022-10-18T01:33:27.881Z,2.3
2022-10-18T01:39:28.861Z,2.4
2022-10-18T01:45:28.020Z,2.4
2022-10-18T01:51:29.836Z,2.4
2022-10-18T01:57:27.906Z,2.3
2022-10-18T02:03:27.717Z,2.3
2022-10-18T02:09:27.740Z,2.3
2022-10-18T02:15:30.039Z,2.3
2022-10-18T02:21:28.777Z,2.2
2022-10-18T02:27:29.109Z,2.2
2022-10-18T02:33:27.850Z,2.2
2022-10-18T02:39:28.293Z,2.2
2022-10-18T02:45:33.179Z,2.2
2022-10-18T02:51:28.849Z,2.2
2022-10-18T02:57:29.646Z,2.2
2022-10-18T03:03:30.128Z,2.2
2022-10-18T03:09:29.559Z,2.2
2022-10-18T03:15:37.531Z,2.2
2022-10-18T03:21:30.460Z,2.2
2022-10-18T03:27:31.626Z,2.2
2022-10-18T03:33:28.079Z,2.2
2022-10-18T03:39:29.342Z,2.2
2022-10-18T03:45:38.168Z,2.2
2022-10-18T03:51:29.408Z,2.2
2022-10-18T03:57:30.281Z,2.2
2022-10-18T04:03:29.723Z,2.2
2022-10-18T04:09:29.464Z,2.1
2022-10-18T04:15:36.003Z,2.1
2022-10-18T04:21:28.646Z,2.2
2022-10-18T04:27:29.986Z,2.2
2022-10-18T04:33:28.104Z,2.2
2022-10-18T04:39:31.180Z,2.3
2022-10-18T04:45:35.261Z,2.3
2022-10-18T04:51:28.517Z,2.3
2022-10-18T04:57:30.756Z,2.3
2022-10-18T05:03:30.171Z,2.3
2022-10-18T05:09:29.477Z,2.3
2022-10-18T05:15:35.971Z,2.3
2022-10-18T05:21:28.435Z,2.3
2022-10-18T05:27:29.516Z,2.3
2022-10-18T05:33:29.498Z,2.3
2022-10-18T05:39:29.241Z,2.3
2022-10-18T05:45:29.450Z,2.3
2022-10-18T05:51:28.939Z,2.2
2022-10-18T05:57:29.278Z,2.2
2022-10-18T06:03:31.087Z,2.2
2022-10-18T06:09:29.191Z,2.2
2022-10-18T06:15:33.486Z,2.2
2022-10-18T06:21:29.240Z,2.1
2022-10-18T06:27:30.798Z,2.1
2022-10-18T06:33:28.227Z,2.1
2022-10-18T06:39:29.209Z,2.1
2022-10-18T06:45:32.930Z,2.2
2022-10-18T06:51:28.159Z,2.1
2022-10-18T06:57:28.310Z,2.1
2022-10-18T07:03:29.781Z,2.1
2022-10-18T07:09:28.768Z,2.1
2022-10-18T07:15:36.736Z,2.1
2022-10-18T07:21:31.808Z,2.1
2022-10-18T07:27:28.049Z,2.1
2022-10-18T07:33:29.261Z,2.2
2022-10-18T07:39:29.358Z,2.2
2022-10-18T07:45:29.730Z,2.2
2022-10-18T07:51:28.273Z,2.1
2022-10-18T07:57:30.325Z,2.1
2022-10-18T08:03:28.114Z,2.1
2022-10-18T08:09:29.770Z,2.1
2022-10-18T08:15:35.909Z,2.2
2022-10-18T08:21:29.022Z,2.2
2022-10-18T08:27:30.739Z,2.2
2022-10-18T08:33:28.160Z,2.2
2022-10-18T08:39:28.837Z,2.2
2022-10-18T08:45:41.887Z,2.2
2022-10-18T08:51:28.454Z,2.3
2022-10-18T08:57:28.086Z,2.2
2022-10-18T09:03:28.351Z,2.3
2022-10-18T09:09:28.037Z,2.3
2022-10-18T09:15:27.815Z,2.2
2022-10-18T09:21:27.951Z,2.2
2022-10-18T09:27:28.354Z,2.2
2022-10-18T09:33:28.104Z,2.2
2022-10-18T09:39:31.179Z,2.2
2022-10-18T09:45:31.490Z,2.3
2022-10-18T09:51:28.163Z,2.3
2022-10-18T09:57:29.528Z,2.3
2022-10-18T10:03:28.546Z,2.3
2022-10-18T10:09:30.851Z,2.3
2022-10-18T10:15:31.414Z,2.3
2022-10-18T10:21:28.832Z,2.3
2022-10-18T10:27:32.789Z,2.3
2022-10-18T10:33:28.672Z,2.2
2022-10-18T10:39:29.359Z,2.2
2022-10-18T10:45:30.528Z,2.3
2022-10-18T10:51:28.667Z,2.2
2022-10-18T10:57:28.239Z,2.2
2022-10-18T11:03:29.838Z,2.2
2022-10-18T11:09:28.480Z,2.2
2022-10-18T11:15:28.774Z,2.3
2022-10-18T11:21:28.022Z,2.3
2022-10-18T11:27:28.078Z,2.3
2022-10-18T11:33:49.457Z,2.2
2022-10-18T11:39:28.050Z,2.3
2022-10-18T11:45:28.314Z,2.3
2022-10-18T11:51:38.720Z,2.3
2022-10-18T11:57:28.029Z,2.3
2022-10-18T12:03:28.026Z,2.3
2022-10-18T12:09:28.244Z,2.4
2022-10-18T12:15:30.315Z,2.8
2022-10-18T12:21:29.427Z,2.8
2022-10-18T12:27:28.730Z,2.9
2022-10-18T12:33:29.032Z,3
2022-10-18T12:39:37.736Z,3
2022-10-18T12:45:28.784Z,3.6
2022-10-18T12:51:29.230Z,3.8
2022-10-18T12:57:28.519Z,3.9
2022-10-18T13:03:28.043Z,3.9
2022-10-18T13:09:27.956Z,3.9
2022-10-18T13:15:31.065Z,4.9
2022-10-18T13:21:28.076Z,4.9
2022-10-18T13:27:36.543Z,4.9
2022-10-18T13:33:27.979Z,4.9
2022-10-18T13:39:28.315Z,4.9
2022-10-18T13:45:28.160Z,4.9
2022-10-18T13:51:27.976Z,5.5
2022-10-18T13:57:28.112Z,5.5
2022-10-18T14:03:55.178Z,5.5
2022-10-18T14:09:44.941Z,6.2
2022-10-18T14:15:28.214Z,6.5
2022-10-18T14:21:31.296Z,6
2022-10-18T14:27:28.432Z,5.5
2022-10-18T14:33:28.296Z,5.5
2022-10-18T14:39:28.550Z,5.1
2022-10-18T14:45:28.205Z,5
2022-10-18T14:51:28.438Z,5.1
2022-10-18T14:57:30.174Z,5.1
2022-10-18T15:03:28.293Z,5.9
2022-10-18T15:09:29.459Z,5.9
2022-10-18T15:15:32.219Z,6.3
2022-10-18T15:21:28.700Z,6.2
2022-10-18T15:27:28.262Z,6
2022-10-18T15:33:28.658Z,5.8
2022-10-18T15:39:30.429Z,5.4
2022-10-18T15:45:28.207Z,5.4
2022-10-18T15:51:28.158Z,5.4
2022-10-18T15:57:31.231Z,5.4
2022-10-18T16:03:28.278Z,5.4
2022-10-18T16:09:28.680Z,5.2
2022-10-18T16:15:28.596Z,4.9
2022-10-18T16:21:28.402Z,4.7
2022-10-18T16:27:30.150Z,4.4
2022-10-18T16:33:28.888Z,4.3
2022-10-18T16:39:28.511Z,4.3
2022-10-18T16:45:28.421Z,4.1
2022-10-18T16:51:29.627Z,4
2022-10-18T16:57:28.428Z,4
2022-10-18T17:03:29.970Z,3.9
2022-10-18T17:09:28.498Z,3.9
2022-10-18T17:15:32.875Z,3.9
2022-10-18T17:21:28.467Z,3.8
2022-10-18T17:27:28.489Z,3.7
2022-10-18T17:33:30.733Z,3.8
2022-10-18T17:39:29.900Z,3.7
2022-10-18T17:45:29.981Z,3.6
2022-10-18T17:51:29.107Z,3.5
2022-10-18T17:57:32.484Z,3.4
2022-10-18T18:03:28.487Z,3.3
2022-10-18T18:09:28.655Z,3.4
2022-10-18T18:15:28.676Z,3.6
2022-10-18T18:21:29.128Z,3.4
2022-10-18T18:27:30.376Z,3.6
2022-10-18T18:33:30.658Z,3.6
2022-10-18T18:39:30.166Z,3.6
2022-10-18T18:45:28.554Z,3.6
2022-10-18T18:51:29.035Z,3.3
2022-10-18T18:57:29.194Z,3.4
2022-10-18T19:03:28.539Z,3.6
2022-10-18T19:09:29.690Z,3.6
2022-10-18T19:15:28.973Z,3.6
2022-10-18T19:21:28.554Z,3.5
2022-10-18T19:27:28.516Z,3.4
2022-10-18T19:33:41.368Z,3.4
2022-10-18T19:39:29.226Z,3.6
2022-10-18T19:45:28.789Z,3.5
2022-10-18T19:51:28.725Z,3.5
2022-10-18T19:57:28.798Z,3.5
2022-10-18T20:03:29.571Z,3.5
2022-10-18T20:09:29.603Z,3.5
2022-10-18T20:15:30.830Z,3.7
2022-10-18T20:21:28.588Z,3.6
2022-10-18T20:27:28.749Z,3.6
2022-10-18T20:33:28.778Z,3.6
2022-10-18T20:39:29.505Z,3.6
2022-10-18T20:45:28.709Z,3.6
2022-10-18T20:51:28.929Z,3.6
2022-10-18T20:57:31.683Z,3.7
2022-10-18T21:03:29.049Z,3.7
2022-10-18T21:09:29.006Z,3.6
2022-10-18T21:15:28.852Z,3.6
2022-10-18T21:21:28.654Z,3.6
2022-10-18T21:27:29.114Z,3.7
2022-10-18T21:33:28.879Z,3.7
2022-10-18T21:39:29.279Z,3.7
2022-10-18T21:45:29.361Z,3.7
2022-10-18T21:51:28.832Z,3.7
2022-10-18T21:57:29.204Z,3.7
2022-10-18T22:03:29.133Z,3.6
2022-10-18T22:09:28.668Z,3.5
2022-10-18T22:15:29.623Z,3.2
2022-10-18T22:21:28.927Z,3.2
2022-10-18T22:27:28.676Z,3.1
2022-10-18T22:33:30.200Z,3
2022-10-18T22:39:28.998Z,2.8
2022-10-18T22:45:28.781Z,2.8
2022-10-18T22:51:28.919Z,2.7
2022-10-18T22:57:28.836Z,2.7
2022-10-18T23:03:28.704Z,2.8
2022-10-18T23:09:29.085Z,2.8
2022-10-18T23:15:28.700Z,2.8
2022-10-18T23:21:29.168Z,2.7
2022-10-18T23:27:29.431Z,2.8
2022-10-18T23:33:29.023Z,2.6
2022-10-18T23:39:28.729Z,2.8
2022-10-18T23:45:29.404Z,2.9
2022-10-18T23:51:30.240Z,2.8
2022-10-18T23:57:30.229Z,2.8
